Time,TemperatureF,DewpointF,PressureIn,WindDirection,WindDirectionDegrees,WindSpeedMPH,WindSpeedGustMPH,Humidity,HourlyPrecipIn,Conditions,Clouds,dailyrainin,SolarRadiationWatts/m^2,SoftwareType,DateUTC
2013-05-28 00:29:00,44.4,40.5,29.50,SSW,213,8.0,8.0,86,0.00,,,0.00,0,Wunderground v.1.15,2013-05-27 23:29:00,
2013-05-28 00:59:00,44.0,40.4,29.50,SW,227,7.0,7.0,87,0.00,,,0.00,0,Wunderground v.1.15,2013-05-27 23:59:00,
2013-05-28 01:29:00,43.5,39.9,29.50,SW,223,6.0,7.0,87,0.00,,,0.00,0,Wunderground v.1.15,2013-05-28 00:29:00,
2013-05-28 01:59:00,42.6,39.9,29.50,SSW,207,8.0,9.0,90,0.00,,,0.00,0,Wunderground v.1.15,2013-05-28 00:59:00,
2013-05-28 02:29:00,42.1,39.4,29.50,SSW,201,7.0,7.0,90,0.00,,,0.00,0,Wunderground v.1.15,2013-05-28 01:29:00,
2013-05-28 02:59:00,41.4,39.3,29.50,SSW,198,7.0,7.0,92,0.00,,,0.00,0,Wunderground v.1.15,2013-05-28 01:59:00,
2013-05-28 03:28:00,41.2,39.1,29.50,SSW,196,8.0,9.0,92,0.00,,,0.00,0,Wunderground v.1.15,2013-05-28 02:28:00,
2013-05-28 03:59:00,40.8,38.9,29.50,SSW,201,8.0,9.0,93,0.00,,,0.00,0,Wunderground v.1.15,2013-05-28 02:59:00,
2013-05-28 04:29:00,40.5,38.6,29.51,SSW,213,8.0,9.0,93,0.00,,,0.00,0,Wunderground v.1.15,2013-05-28 03:29:00,
2013-05-28 04:59:00,40.5,38.9,29.51,SW,219,8.0,8.0,94,0.00,,,0.00,0,Wunderground v.1.15,2013-05-28 03:59:00,
2013-05-28 05:29:00,40.1,38.5,29.52,SW,219,7.0,7.0,94,0.00,,,0.00,7,Wunderground v.1.15,2013-05-28 04:29:00,
2013-05-28 05:59:00,40.5,39.2,29.52,SW,215,7.0,7.0,95,0.00,,,0.00,23,Wunderground v.1.15,2013-05-28 04:59:00,
2013-05-28 06:29:00,41.7,40.4,29.53,SW,219,7.0,7.0,95,0.00,,,0.00,104,Wunderground v.1.15,2013-05-28 05:29:00,
2013-05-28 06:59:00,43.5,41.9,29.54,SW,223,7.0,7.0,94,0.00,,,0.00,172,Wunderground v.1.15,2013-05-28 05:59:00,
2013-05-28 07:29:00,45.2,43.0,29.55,SW,228,6.0,6.0,92,0.00,,,0.00,246,Wunderground v.1.15,2013-05-28 06:29:00,
2013-05-28 07:59:00,47.0,43.6,29.56,SW,231,5.0,5.0,88,0.00,,,0.00,155,Wunderground v.1.15,2013-05-28 06:59:00,
2013-05-28 08:28:00,49.1,45.7,29.56,SW,229,2.0,4.0,88,0.00,,,0.00,548,Wunderground v.1.15,2013-05-28 07:28:00,
2013-05-28 08:59:00,50.8,45.8,29.57,SW,234,5.0,5.0,83,0.00,,,0.00,288,Wunderground v.1.15,2013-05-28 07:59:00,
2013-05-28 09:29:00,51.9,45.3,29.57,WSW,251,4.0,4.0,78,0.00,,,0.00,359,Wunderground v.1.15,2013-05-28 08:29:00,
2013-05-28 09:59:00,51.5,45.5,29.57,NW,306,6.0,8.0,80,0.00,,,0.00,116,Wunderground v.1.15,2013-05-28 08:59:00,
2013-05-28 10:28:00,49.6,45.6,29.58,NW,307,3.0,3.0,86,0.00,,,0.00,171,Wunderground v.1.15,2013-05-28 09:28:00,
2013-05-28 10:59:00,50.1,45.1,29.58,NW,306,1.0,2.0,83,0.00,,,0.00,267,Wunderground v.1.15,2013-05-28 09:59:00,
2013-05-28 11:29:00,53.3,45.2,29.58,NW,306,1.0,1.0,74,0.00,,,0.00,227,Wunderground v.1.15,2013-05-28 10:29:00,
2013-05-28 11:59:00,52.6,44.5,29.59,NW,307,1.0,1.0,74,0.00,,,0.00,338,Wunderground v.1.15,2013-05-28 10:59:00,
2013-05-28 12:29:00,51.8,46.2,29.59,ESE,103,4.0,4.0,81,0.00,,,0.00,176,Wunderground v.1.15,2013-05-28 11:29:00,
2013-05-28 12:59:00,52.7,46.7,29.59,East,81,3.0,4.0,80,0.00,,,0.00,279,Wunderground v.1.15,2013-05-28 11:59:00,
2013-05-28 13:29:00,51.0,46.3,29.60,ESE,114,8.0,13.0,84,0.00,,,0.00,288,Wunderground v.1.15,2013-05-28 12:29:00,
2013-05-28 13:59:00,51.2,47.2,29.60,ESE,103,10.0,10.0,86,0.00,,,0.00,480,Wunderground v.1.15,2013-05-28 12:59:00,
2013-05-28 14:28:00,53.0,48.3,29.60,East,93,7.0,7.0,84,0.00,,,0.00,439,Wunderground v.1.15,2013-05-28 13:28:00,
2013-05-28 14:59:00,54.0,48.6,29.60,East,86,7.0,7.0,82,0.00,,,0.00,455,Wunderground v.1.15,2013-05-28 13:59:00,
2013-05-28 15:28:00,55.2,47.1,29.60,ESE,107,6.0,6.0,74,0.00,,,0.00,928,Wunderground v.1.15,2013-05-28 14:28:00,
2013-05-28 15:59:00,52.4,46.1,29.61,East,101,8.0,8.0,79,0.00,,,0.00,146,Wunderground v.1.15,2013-05-28 14:59:00,
2013-05-28 16:29:00,55.0,47.6,29.61,East,91,7.0,7.0,76,0.00,,,0.00,687,Wunderground v.1.15,2013-05-28 15:29:00,
2013-05-28 16:59:00,54.7,46.6,29.61,ESE,113,7.0,7.0,74,0.00,,,0.00,615,Wunderground v.1.15,2013-05-28 15:59:00,
2013-05-28 17:29:00,54.0,46.3,29.62,East,100,9.0,9.0,75,0.00,,,0.00,561,Wunderground v.1.15,2013-05-28 16:29:00,
2013-05-28 17:59:00,54.3,46.5,29.62,ESE,117,8.0,9.0,75,0.00,,,0.00,480,Wunderground v.1.15,2013-05-28 16:59:00,
2013-05-28 18:28:00,52.8,45.8,29.63,ESE,105,8.0,8.0,77,0.00,,,0.00,388,Wunderground v.1.15,2013-05-28 17:28:00,
2013-05-28 18:59:00,51.9,45.9,29.63,East,96,6.0,6.0,80,0.00,,,0.00,223,Wunderground v.1.15,2013-05-28 17:59:00,
2013-05-28 19:29:00,51.2,45.6,29.64,East,92,5.0,7.0,81,0.00,,,0.00,146,Wunderground v.1.15,2013-05-28 18:29:00,
2013-05-28 19:59:00,50.6,45.6,29.64,East,90,2.0,2.0,83,0.00,,,0.00,88,Wunderground v.1.15,2013-05-28 18:59:00,
2013-05-28 20:29:00,50.3,45.3,29.65,ENE,78,4.0,4.0,83,0.00,,,0.00,49,Wunderground v.1.15,2013-05-28 19:29:00,
2013-05-28 20:59:00,49.3,45.3,29.66,East,79,3.0,3.0,86,0.00,,,0.00,14,Wunderground v.1.15,2013-05-28 19:59:00,
2013-05-28 21:29:00,49.2,45.5,29.66,ENE,78,2.0,3.0,87,0.00,,,0.00,5,Wunderground v.1.15,2013-05-28 20:29:00,
2013-05-28 21:59:00,48.8,44.8,29.67,ENE,65,4.0,4.0,86,0.00,,,0.00,0,Wunderground v.1.15,2013-05-28 20:59:00,
2013-05-28 22:28:00,48.8,45.4,29.68,ENE,61,5.0,5.0,88,0.00,,,0.00,0,Wunderground v.1.15,2013-05-28 21:28:00,
2013-05-28 22:59:00,48.7,45.9,29.68,ENE,71,5.0,5.0,90,0.00,,,0.00,0,Wunderground v.1.15,2013-05-28 21:59:00,
2013-05-28 23:28:00,48.4,45.9,29.69,NE,49,6.0,6.0,91,0.04,,,0.02,0,Wunderground v.1.15,2013-05-28 22:28:00,
2013-05-28 23:59:00,47.9,46.0,29.69,NE,49,4.0,5.0,93,0.09,,,0.05,0,Wunderground v.1.15,2013-05-28 22:59:00,